createdAt,value
2023-01-25T00:04:59.425Z,1404
2023-01-25T00:10:17.362Z,1397
2023-01-25T00:15:35.864Z,1405
2023-01-25T00:20:54.351Z,1403
2023-01-25T00:26:12.346Z,1399
2023-01-25T00:31:30.698Z,1393
2023-01-25T00:36:49.184Z,1399
2023-01-25T00:42:07.655Z,1402
2023-01-25T00:47:26.238Z,1400
2023-01-25T00:52:45.012Z,1392
2023-01-25T00:58:03.205Z,1388
2023-01-25T01:03:21.814Z,1381
2023-01-25T01:08:40.348Z,1385
2023-01-25T01:13:59.230Z,1379
2023-01-25T01:19:18.022Z,1379
2023-01-25T01:24:36.539Z,1384
2023-01-25T01:29:54.946Z,1382
2023-01-25T01:35:13.430Z,1381
2023-01-25T01:40:31.922Z,1379
2023-01-25T01:45:50.724Z,1395
2023-01-25T01:51:09.287Z,1398
2023-01-25T01:56:12.173Z,1406
2023-01-25T02:01:30.504Z,1408
2023-01-25T02:06:49.129Z,1416
2023-01-25T02:12:07.935Z,1417
2023-01-25T02:17:26.722Z,1418
2023-01-25T02:22:44.911Z,1423
2023-01-25T02:28:03.170Z,1426
2023-01-25T02:33:21.384Z,1420
2023-01-25T02:38:40.152Z,1428
2023-01-25T02:43:58.656Z,1419
2023-01-25T02:49:16.897Z,1420
2023-01-25T02:54:34.846Z,1415
2023-01-25T02:59:53.325Z,1424
2023-01-25T03:05:12.027Z,1435
2023-01-25T03:10:30.246Z,1435
2023-01-25T03:15:48.734Z,1426
2023-01-25T03:21:07.002Z,1427
2023-01-25T03:26:25.531Z,1434
2023-01-25T03:31:44.168Z,1430
2023-01-25T03:37:02.956Z,1426
2023-01-25T03:42:21.636Z,1428
2023-01-25T03:47:40.594Z,1443
2023-01-25T03:52:59.047Z,1439
2023-01-25T03:58:17.385Z,1441
2023-01-25T04:03:35.891Z,1436
2023-01-25T04:08:54.639Z,1431
2023-01-25T04:14:13.381Z,1423
2023-01-25T04:19:31.951Z,1420
2023-01-25T04:24:50.825Z,1422
2023-01-25T04:30:09.332Z,1422
2023-01-25T04:35:27.579Z,1410
2023-01-25T04:40:45.792Z,1415
2023-01-25T04:46:04.450Z,1411
2023-01-25T04:51:23.153Z,1425
2023-01-25T04:56:41.103Z,1434
2023-01-25T05:01:59.369Z,1443
2023-01-25T05:07:17.789Z,1457
2023-01-25T05:12:36.111Z,1439
2023-01-25T05:17:54.651Z,1438
2023-01-25T05:23:13.033Z,1410
2023-01-25T05:28:31.866Z,1416
2023-01-25T05:33:50.590Z,1452
2023-01-25T05:39:09.317Z,1411
2023-01-25T05:44:27.785Z,1353
2023-01-25T05:49:46.315Z,1352
2023-01-25T05:55:04.253Z,1352
2023-01-25T06:00:22.790Z,1379
2023-01-25T06:05:40.992Z,1390
2023-01-25T06:10:44.166Z,1394
2023-01-25T06:16:02.689Z,1396
2023-01-25T06:21:21.161Z,1381
2023-01-25T06:26:40.242Z,1358
2023-01-25T06:31:58.825Z,1347
2023-01-25T06:37:18.046Z,1339
2023-01-25T06:42:36.490Z,1329
2023-01-25T06:47:54.980Z,1331
2023-01-25T06:53:13.266Z,1325
2023-01-25T06:58:32.039Z,1326
2023-01-25T07:03:50.301Z,1322
2023-01-25T07:08:53.287Z,1319
2023-01-25T07:14:11.790Z,1313
2023-01-25T07:19:30.295Z,1309
2023-01-25T07:24:48.947Z,1308
2023-01-25T07:30:07.722Z,1301
2023-01-25T07:35:26.589Z,1295
2023-01-25T07:40:45.417Z,1296
2023-01-25T07:46:03.995Z,1289
2023-01-25T07:51:22.917Z,1294
2023-01-25T07:56:41.944Z,1290
2023-01-25T08:02:00.846Z,1293
2023-01-25T08:07:19.609Z,1294
2023-01-25T08:12:38.380Z,1298
2023-01-25T08:17:56.975Z,1297
2023-01-25T08:23:15.443Z,1299
2023-01-25T08:28:18.001Z,1291
2023-01-25T08:33:36.259Z,1289
2023-01-25T08:38:54.467Z,1275
2023-01-25T08:44:13.205Z,1284
2023-01-25T08:49:31.764Z,1289
2023-01-25T08:54:50.288Z,1317
2023-01-25T09:00:09.303Z,1293
2023-01-25T09:05:29.477Z,1264
2023-01-25T09:10:48.256Z,1229
2023-01-25T09:16:06.751Z,1205
2023-01-25T09:21:25.297Z,1186
2023-01-25T09:26:50.008Z,1173
2023-01-25T09:32:18.340Z,1168
2023-01-25T09:37:37.113Z,1156
2023-01-25T09:47:48.799Z,1155
2023-01-25T09:53:07.197Z,1160
2023-01-25T09:58:26.056Z,1156
2023-01-25T10:03:45.018Z,1143
2023-01-25T10:09:04.076Z,1136
2023-01-25T10:14:22.598Z,1130
2023-01-25T10:19:25.407Z,1140
2023-01-25T10:24:28.410Z,1134
2023-01-25T10:29:46.458Z,1137
2023-01-25T10:35:07.321Z,1134
2023-01-25T10:40:25.844Z,1137
2023-01-25T10:45:44.371Z,1115
2023-01-25T10:51:03.172Z,1100
2023-01-25T10:56:21.874Z,1086
2023-01-25T11:01:40.226Z,1076
2023-01-25T11:06:59.155Z,949
2023-01-25T11:12:17.453Z,1005
2023-01-25T11:17:35.643Z,1054
2023-01-25T11:22:53.914Z,1054
2023-01-25T11:28:12.426Z,1039
2023-01-25T11:33:31.167Z,1020
2023-01-25T11:38:49.667Z,1008
2023-01-25T11:44:07.872Z,1006
2023-01-25T11:49:26.633Z,1003
2023-01-25T11:54:29.472Z,1002
2023-01-25T11:59:32.387Z,994
2023-01-25T12:04:41.109Z,979
2023-01-25T12:09:59.524Z,978
2023-01-25T12:15:18.160Z,974
2023-01-25T12:20:36.759Z,979
2023-01-25T12:25:55.783Z,985
2023-01-25T12:31:15.471Z,981
2023-01-25T12:36:34.615Z,971
2023-01-25T12:41:52.965Z,964
2023-01-25T12:47:12.928Z,965
2023-01-25T12:52:33.597Z,948
2023-01-25T12:57:52.096Z,937
2023-01-25T13:03:10.535Z,933
2023-01-25T13:08:31.934Z,920
2023-01-25T13:13:50.723Z,906
2023-01-25T13:19:09.268Z,896
2023-01-25T13:24:27.475Z,883
2023-01-25T13:29:45.945Z,877
2023-01-25T13:35:04.385Z,864
2023-01-25T13:40:25.419Z,862
2023-01-25T13:45:43.952Z,858
2023-01-25T13:51:03.615Z,852
2023-01-25T13:56:21.585Z,847
2023-01-25T14:01:39.994Z,848
2023-01-25T14:06:58.915Z,844
2023-01-25T14:12:17.418Z,839
2023-01-25T14:17:36.108Z,832
2023-01-25T14:22:54.583Z,831
2023-01-25T14:28:12.834Z,856
2023-01-25T14:33:31.282Z,905
2023-01-25T14:38:49.310Z,911
2023-01-25T14:44:07.866Z,928
2023-01-25T14:49:26.317Z,976
2023-01-25T14:54:45.003Z,979
2023-01-25T15:00:03.223Z,968
2023-01-25T15:05:22.293Z,950
2023-01-25T15:10:41.081Z,938
2023-01-25T15:15:59.583Z,922
2023-01-25T15:21:18.326Z,915
2023-01-25T15:26:37.394Z,897
2023-01-25T15:31:55.901Z,876
2023-01-25T15:37:14.143Z,872
2023-01-25T15:42:32.699Z,864
2023-01-25T15:47:51.818Z,853
2023-01-25T15:53:10.355Z,846
2023-01-25T15:58:29.122Z,847
2023-01-25T16:03:47.564Z,844
2023-01-25T16:09:06.058Z,839
2023-01-25T16:14:24.355Z,871
2023-01-25T16:19:43.035Z,893
2023-01-25T16:25:10.287Z,917
2023-01-25T16:30:34.652Z,933
2023-01-25T16:35:53.936Z,934
2023-01-25T16:41:12.414Z,918
2023-01-25T16:46:30.945Z,905
2023-01-25T16:51:49.748Z,888
2023-01-25T16:57:19.765Z,890
2023-01-25T17:02:41.870Z,882
2023-01-25T17:08:17.347Z,905
2023-01-25T17:13:36.390Z,905
2023-01-25T17:18:54.665Z,942
2023-01-25T17:24:13.282Z,941
2023-01-25T17:29:31.405Z,929
2023-01-25T17:34:50.248Z,919
2023-01-25T17:40:09.263Z,909
2023-01-25T17:45:29.824Z,925
2023-01-25T17:50:48.180Z,942
2023-01-25T17:56:06.430Z,929
2023-01-25T18:01:24.710Z,902
2023-01-25T18:06:43.518Z,881
2023-01-25T18:12:02.016Z,866
2023-01-25T18:17:20.283Z,877
2023-01-25T18:22:22.950Z,889
2023-01-25T18:27:41.794Z,881
2023-01-25T18:33:00.088Z,872
2023-01-25T18:38:18.608Z,863
2023-01-25T18:43:37.076Z,861
2023-01-25T18:48:55.619Z,858
2023-01-25T18:54:14.548Z,858
2023-01-25T18:59:33.111Z,860
2023-01-25T19:04:51.555Z,861
2023-01-25T19:10:10.942Z,919
2023-01-25T19:15:29.544Z,992
2023-01-25T19:20:48.315Z,1000
2023-01-25T19:26:06.927Z,996
2023-01-25T19:31:25.970Z,993
2023-01-25T19:36:44.835Z,985
2023-01-25T19:42:03.615Z,980
2023-01-25T19:47:22.911Z,980
2023-01-25T19:52:41.433Z,978
2023-01-25T19:57:59.956Z,986
2023-01-25T20:03:18.744Z,990
2023-01-25T20:08:37.084Z,997
2023-01-25T20:13:55.866Z,1002
2023-01-25T20:19:14.678Z,1008
2023-01-25T20:24:33.131Z,1013
2023-01-25T20:29:52.362Z,1018
2023-01-25T20:35:10.721Z,1023
2023-01-25T20:40:30.383Z,1001
2023-01-25T20:45:49.178Z,1063
2023-01-25T20:51:08.686Z,1139
2023-01-25T20:56:14.078Z,1155
2023-01-25T21:01:32.571Z,1143
2023-01-25T21:06:52.322Z,1134
2023-01-25T21:12:11.108Z,1157
2023-01-25T21:17:29.937Z,1175
2023-01-25T21:22:48.709Z,1201
2023-01-25T21:28:07.511Z,1211
2023-01-25T21:33:25.726Z,1214
2023-01-25T21:38:44.139Z,1217
2023-01-25T21:44:02.361Z,1225
2023-01-25T21:49:20.873Z,1233
2023-01-25T21:54:39.345Z,1247
2023-01-25T21:59:57.651Z,1263
2023-01-25T22:05:16.464Z,1274
2023-01-25T22:10:34.920Z,1284
2023-01-25T22:15:53.621Z,1288
2023-01-25T22:21:12.173Z,1295
2023-01-25T22:26:30.647Z,1301
2023-01-25T22:31:49.689Z,1306
2023-01-25T22:37:08.615Z,1315
2023-01-25T22:42:26.805Z,1321
2023-01-25T22:47:45.232Z,1324
2023-01-25T22:53:04.061Z,1318
2023-01-25T22:58:22.560Z,1322
2023-01-25T23:03:41.368Z,1333
2023-01-25T23:09:00.152Z,1333
2023-01-25T23:14:18.720Z,1341
2023-01-25T23:19:36.946Z,1345
2023-01-25T23:24:55.803Z,1342
2023-01-25T23:30:14.622Z,1344
2023-01-25T23:35:33.415Z,1344
2023-01-25T23:40:51.331Z,1332
2023-01-25T23:46:10.176Z,1330
2023-01-25T23:51:28.484Z,1327
2023-01-25T23:56:46.723Z,1326
